sensor_id;sensor_type;location;lat;lon;timestamp;pressure;altitude;pressure_sealevel;temperature;humidity
71476;BME280;59286;59.274;17.974;2023-11-19T00:01:00;101659.19;;;-3.19;98.68
71476;BME280;59286;59.274;17.974;2023-11-19T00:03:26;101660.13;;;-3.20;98.98
71476;BME280;59286;59.274;17.974;2023-11-19T00:05:51;101641.75;;;-3.24;99.90
71476;BME280;59286;59.274;17.974;2023-11-19T00:08:16;101656.25;;;-3.16;99.48
71476;BME280;59286;59.274;17.974;2023-11-19T00:10:42;101657.75;;;-3.22;99.29
71476;BME280;59286;59.274;17.974;2023-11-19T00:13:07;101648.19;;;-3.28;99.56
71476;BME280;59286;59.274;17.974;2023-11-19T00:15:33;101652.88;;;-3.17;97.68
71476;BME280;59286;59.274;17.974;2023-11-19T00:17:58;101638.91;;;-3.14;97.62
71476;BME280;59286;59.274;17.974;2023-11-19T00:20:23;101639.81;;;-3.22;97.57
71476;BME280;59286;59.274;17.974;2023-11-19T00:22:49;101637.63;;;-3.25;98.76
71476;BME280;59286;59.274;17.974;2023-11-19T00:25:18;101639.81;;;-3.22;99.55
71476;BME280;59286;59.274;17.974;2023-11-19T00:27:43;101628.13;;;-3.24;98.13
71476;BME280;59286;59.274;17.974;2023-11-19T00:30:12;101626.00;;;-3.21;98.53
71476;BME280;59286;59.274;17.974;2023-11-19T00:32:38;101616.31;;;-3.25;98.80
71476;BME280;59286;59.274;17.974;2023-11-19T00:35:05;101619.13;;;-3.20;97.80
71476;BME280;59286;59.274;17.974;2023-11-19T00:37:31;101622.66;;;-3.21;98.51
71476;BME280;59286;59.274;17.974;2023-11-19T00:39:56;101614.00;;;-3.20;98.47
71476;BME280;59286;59.274;17.974;2023-11-19T00:42:22;101614.09;;;-3.14;98.43
71476;BME280;59286;59.274;17.974;2023-11-19T00:44:49;101603.31;;;-3.24;99.14
71476;BME280;59286;59.274;17.974;2023-11-19T00:47:14;101605.34;;;-3.19;99.19
71476;BME280;59286;59.274;17.974;2023-11-19T00:49:40;101604.28;;;-3.25;98.28
71476;BME280;59286;59.274;17.974;2023-11-19T00:52:05;101600.41;;;-3.35;99.50
71476;BME280;59286;59.274;17.974;2023-11-19T00:54:31;101593.31;;;-3.33;99.64
71476;BME280;59286;59.274;17.974;2023-11-19T00:56:57;101596.16;;;-3.28;98.52
71476;BME280;59286;59.274;17.974;2023-11-19T00:59:22;101587.50;;;-3.27;98.57
71476;BME280;59286;59.274;17.974;2023-11-19T01:01:47;101604.91;;;-3.23;98.74
71476;BME280;59286;59.274;17.974;2023-11-19T01:04:13;101605.53;;;-3.35;99.27
71476;BME280;59286;59.274;17.974;2023-11-19T01:06:39;101602.00;;;-3.34;99.21
71476;BME280;59286;59.274;17.974;2023-11-19T01:09:05;101593.69;;;-3.36;100.00
71476;BME280;59286;59.274;17.974;2023-11-19T01:11:30;101600.06;;;-3.32;99.95
71476;BME280;59286;59.274;17.974;2023-11-19T01:13:56;101601.28;;;-3.28;98.79
71476;BME280;59286;59.274;17.974;2023-11-19T01:16:21;101594.94;;;-3.32;99.25
71476;BME280;59286;59.274;17.974;2023-11-19T01:18:47;101588.56;;;-3.36;100.00
71476;BME280;59286;59.274;17.974;2023-11-19T01:21:13;101576.22;;;-3.47;100.00
71476;BME280;59286;59.274;17.974;2023-11-19T01:23:42;101583.53;;;-3.44;100.00
71476;BME280;59286;59.274;17.974;2023-11-19T01:26:13;101578.50;;;-3.52;99.46
71476;BME280;59286;59.274;17.974;2023-11-19T01:28:40;101575.59;;;-3.49;99.80
71476;BME280;59286;59.274;17.974;2023-11-19T01:31:08;101577.44;;;-3.43;99.08
71476;BME280;59286;59.274;17.974;2023-11-19T01:33:35;101580.16;;;-3.45;99.57
71476;BME280;59286;59.274;17.974;2023-11-19T01:36:00;101576.13;;;-3.54;100.00
71476;BME280;59286;59.274;17.974;2023-11-19T01:38:26;101569.66;;;-3.50;99.60
71476;BME280;59286;59.274;17.974;2023-11-19T01:40:56;101579.13;;;-3.50;99.66
71476;BME280;59286;59.274;17.974;2023-11-19T01:43:36;101573.81;;;-3.63;100.00
71476;BME280;59286;59.274;17.974;2023-11-19T01:46:02;101569.75;;;-3.58;100.00
71476;BME280;59286;59.274;17.974;2023-11-19T01:48:34;101556.25;;;-3.66;100.00
71476;BME280;59286;59.274;17.974;2023-11-19T01:51:05;101547.88;;;-3.75;100.00
71476;BME280;59286;59.274;17.974;2023-11-19T01:53:30;101549.81;;;-3.77;100.00
71476;BME280;59286;59.274;17.974;2023-11-19T01:55:58;101554.66;;;-3.82;100.00
71476;BME280;59286;59.274;17.974;2023-11-19T01:58:24;101542.13;;;-3.92;100.00
71476;BME280;59286;59.274;17.974;2023-11-19T02:00:49;101528.72;;;-3.93;100.00
71476;BME280;59286;59.274;17.974;2023-11-19T02:03:16;101537.38;;;-3.95;100.00
71476;BME280;59286;59.274;17.974;2023-11-19T02:05:41;101540.28;;;-3.98;100.00
71476;BME280;59286;59.274;17.974;2023-11-19T02:08:07;101514.06;;;-4.14;100.00
71476;BME280;59286;59.274;17.974;2023-11-19T02:10:34;101501.59;;;-4.17;100.00
71476;BME280;59286;59.274;17.974;2023-11-19T02:13:00;101505.03;;;-4.25;100.00
71476;BME280;59286;59.274;17.974;2023-11-19T02:15:26;101510.63;;;-4.07;100.00
71476;BME280;59286;59.274;17.974;2023-11-19T02:17:51;101521.38;;;-3.97;100.00
71476;BME280;59286;59.274;17.974;2023-11-19T02:20:17;101531.19;;;-3.85;100.00
71476;BME280;59286;59.274;17.974;2023-11-19T02:22:46;101515.56;;;-3.90;100.00
71476;BME280;59286;59.274;17.974;2023-11-19T02:25:19;101523.25;;;-3.90;100.00
71476;BME280;59286;59.274;17.974;2023-11-19T02:27:56;101491.53;;;-4.04;100.00
71476;BME280;59286;59.274;17.974;2023-11-19T02:30:24;101506.03;;;-3.97;100.00
71476;BME280;59286;59.274;17.974;2023-11-19T02:32:52;101486.59;;;-4.06;100.00
71476;BME280;59286;59.274;17.974;2023-11-19T02:35:19;101482.97;;;-3.97;100.00
71476;BME280;59286;59.274;17.974;2023-11-19T02:37:44;101463.22;;;-4.03;100.00
71476;BME280;59286;59.274;17.974;2023-11-19T02:40:10;101502.56;;;-3.74;100.00
71476;BME280;59286;59.274;17.974;2023-11-19T02:42:35;101458.63;;;-3.92;100.00
71476;BME280;59286;59.274;17.974;2023-11-19T02:45:01;101470.81;;;-3.95;100.00
71476;BME280;59286;59.274;17.974;2023-11-19T02:47:27;101486.75;;;-3.78;100.00
71476;BME280;59286;59.274;17.974;2023-11-19T02:49:55;101487.13;;;-3.81;100.00
71476;BME280;59286;59.274;17.974;2023-11-19T02:52:21;101455.44;;;-3.95;99.99
71476;BME280;59286;59.274;17.974;2023-11-19T02:54:46;101428.09;;;-4.09;99.63
71476;BME280;59286;59.274;17.974;2023-11-19T02:57:11;101440.53;;;-4.06;99.84
71476;BME280;59286;59.274;17.974;2023-11-19T02:59:40;101448.91;;;-4.12;100.00
71476;BME280;59286;59.274;17.974;2023-11-19T03:02:08;101430.84;;;-4.39;100.00
71476;BME280;59286;59.274;17.974;2023-11-19T03:04:37;101429.09;;;-4.39;100.00
71476;BME280;59286;59.274;17.974;2023-11-19T03:07:07;101454.75;;;-4.32;100.00
71476;BME280;59286;59.274;17.974;2023-11-19T03:09:33;101452.44;;;-4.42;100.00
71476;BME280;59286;59.274;17.974;2023-11-19T03:12:00;101454.56;;;-4.45;100.00
71476;BME280;59286;59.274;17.974;2023-11-19T03:14:26;101444.44;;;-4.53;100.00
71476;BME280;59286;59.274;17.974;2023-11-19T03:16:51;101435.56;;;-4.65;100.00
71476;BME280;59286;59.274;17.974;2023-11-19T03:19:16;101443.06;;;-4.64;100.00
71476;BME280;59286;59.274;17.974;2023-11-19T03:21:42;101425.16;;;-4.78;100.00
71476;BME280;59286;59.274;17.974;2023-11-19T03:24:07;101429.75;;;-4.74;100.00
71476;BME280;59286;59.274;17.974;2023-11-19T03:26:34;101429.38;;;-4.85;100.00
71476;BME280;59286;59.274;17.974;2023-11-19T03:28:59;101419.47;;;-4.88;100.00
71476;BME280;59286;59.274;17.974;2023-11-19T03:31:24;101421.16;;;-4.81;100.00
71476;BME280;59286;59.274;17.974;2023-11-19T03:33:50;101416.22;;;-4.82;100.00
71476;BME280;59286;59.274;17.974;2023-11-19T03:36:16;101408.13;;;-4.86;100.00
71476;BME280;59286;59.274;17.974;2023-11-19T03:38:41;101408.25;;;-4.79;100.00
71476;BME280;59286;59.274;17.974;2023-11-19T03:41:11;101404.81;;;-4.72;100.00
71476;BME280;59286;59.274;17.974;2023-11-19T03:43:37;101408.31;;;-4.73;100.00
71476;BME280;59286;59.274;17.974;2023-11-19T03:46:02;101392.97;;;-4.73;100.00
71476;BME280;59286;59.274;17.974;2023-11-19T03:48:27;101397.84;;;-4.63;100.00
71476;BME280;59286;59.274;17.974;2023-11-19T03:50:53;101390.97;;;-4.63;100.00
71476;BME280;59286;59.274;17.974;2023-11-19T03:53:18;101388.06;;;-4.60;100.00
71476;BME280;59286;59.274;17.974;2023-11-19T03:55:44;101391.22;;;-4.58;100.00
71476;BME280;59286;59.274;17.974;2023-11-19T03:58:09;101389.66;;;-4.59;100.00
71476;BME280;59286;59.274;17.974;2023-11-19T04:00:34;101375.00;;;-4.65;100.00
71476;BME280;59286;59.274;17.974;2023-11-19T04:03:00;101385.25;;;-4.65;100.00
71476;BME280;59286;59.274;17.974;2023-11-19T04:05:25;101385.56;;;-4.68;100.00
71476;BME280;59286;59.274;17.974;2023-11-19T04:07:51;101377.31;;;-4.70;100.00
71476;BME280;59286;59.274;17.974;2023-11-19T04:10:16;101370.84;;;-4.66;100.00
71476;BME280;59286;59.274;17.974;2023-11-19T04:12:42;101371.13;;;-4.61;100.00
71476;BME280;59286;59.274;17.974;2023-11-19T04:15:08;101363.34;;;-4.53;100.00
71476;BME280;59286;59.274;17.974;2023-11-19T04:17:34;101368.63;;;-4.40;100.00
71476;BME280;59286;59.274;17.974;2023-11-19T04:19:59;101366.69;;;-4.38;100.00
71476;BME280;59286;59.274;17.974;2023-11-19T04:22:24;101362.91;;;-4.27;100.00
71476;BME280;59286;59.274;17.974;2023-11-19T04:24:50;101360.06;;;-4.18;100.00
71476;BME280;59286;59.274;17.974;2023-11-19T04:27:15;101354.59;;;-4.15;100.00
71476;BME280;59286;59.274;17.974;2023-11-19T04:29:40;101352.84;;;-4.14;100.00
71476;BME280;59286;59.274;17.974;2023-11-19T04:32:06;101345.78;;;-4.12;100.00
71476;BME280;59286;59.274;17.974;2023-11-19T04:34:31;101342.22;;;-4.11;100.00
71476;BME280;59286;59.274;17.974;2023-11-19T04:36:56;101345.13;;;-4.00;100.00
71476;BME280;59286;59.274;17.974;2023-11-19T04:39:22;101334.59;;;-3.90;100.00
71476;BME280;59286;59.274;17.974;2023-11-19T04:41:48;101335.44;;;-3.83;100.00
71476;BME280;59286;59.274;17.974;2023-11-19T04:44:15;101329.09;;;-3.87;100.00
71476;BME280;59286;59.274;17.974;2023-11-19T04:46:41;101335.50;;;-3.76;100.00
71476;BME280;59286;59.274;17.974;2023-11-19T04:49:08;101336.38;;;-3.69;100.00
71476;BME280;59286;59.274;17.974;2023-11-19T04:51:42;101330.22;;;-3.75;100.00
71476;BME280;59286;59.274;17.974;2023-11-19T04:54:08;101328.84;;;-3.71;100.00
71476;BME280;59286;59.274;17.974;2023-11-19T04:56:34;101324.91;;;-3.73;100.00
71476;BME280;59286;59.274;17.974;2023-11-19T04:59:01;101322.34;;;-3.73;100.00
71476;BME280;59286;59.274;17.974;2023-11-19T05:01:27;101324.00;;;-3.66;100.00
71476;BME280;59286;59.274;17.974;2023-11-19T05:03:52;101326.59;;;-3.59;100.00
71476;BME280;59286;59.274;17.974;2023-11-19T05:06:18;101327.44;;;-3.52;100.00
71476;BME280;59286;59.274;17.974;2023-11-19T05:08:44;101307.13;;;-3.54;100.00
71476;BME280;59286;59.274;17.974;2023-11-19T05:11:09;101318.06;;;-3.45;100.00
71476;BME280;59286;59.274;17.974;2023-11-19T05:13:37;101309.03;;;-3.41;100.00
71476;BME280;59286;59.274;17.974;2023-11-19T05:16:02;101310.06;;;-3.36;100.00
71476;BME280;59286;59.274;17.974;2023-11-19T05:18:27;101312.97;;;-3.39;100.00
71476;BME280;59286;59.274;17.974;2023-11-19T05:20:53;101307.84;;;-3.39;100.00
71476;BME280;59286;59.274;17.974;2023-11-19T05:23:18;101305.09;;;-3.37;100.00
71476;BME280;59286;59.274;17.974;2023-11-19T05:25:43;101301.00;;;-3.32;100.00
71476;BME280;59286;59.274;17.974;2023-11-19T05:28:10;101291.94;;;-3.34;100.00
71476;BME280;59286;59.274;17.974;2023-11-19T05:30:36;101284.97;;;-3.40;100.00
71476;BME280;59286;59.274;17.974;2023-11-19T05:33:01;101293.88;;;-3.36;100.00
71476;BME280;59286;59.274;17.974;2023-11-19T05:35:26;101273.31;;;-3.43;100.00
71476;BME280;59286;59.274;17.974;2023-11-19T05:37:52;101283.63;;;-3.36;100.00
71476;BME280;59286;59.274;17.974;2023-11-19T05:40:17;101276.69;;;-3.42;100.00
71476;BME280;59286;59.274;17.974;2023-11-19T05:42:43;101279.66;;;-3.39;100.00
71476;BME280;59286;59.274;17.974;2023-11-19T05:45:11;101285.22;;;-3.35;100.00
71476;BME280;59286;59.274;17.974;2023-11-19T05:47:36;101268.03;;;-3.41;100.00
71476;BME280;59286;59.274;17.974;2023-11-19T05:50:02;101275.13;;;-3.43;100.00
71476;BME280;59286;59.274;17.974;2023-11-19T05:52:28;101267.25;;;-3.42;100.00
71476;BME280;59286;59.274;17.974;2023-11-19T05:54:58;101260.94;;;-3.39;100.00
71476;BME280;59286;59.274;17.974;2023-11-19T05:57:23;101261.00;;;-3.33;100.00
71476;BME280;59286;59.274;17.974;2023-11-19T05:59:50;101263.75;;;-3.34;100.00
71476;BME280;59286;59.274;17.974;2023-11-19T06:02:16;101261.13;;;-3.41;100.00
71476;BME280;59286;59.274;17.974;2023-11-19T06:04:41;101258.16;;;-3.44;100.00
71476;BME280;59286;59.274;17.974;2023-11-19T06:07:09;101264.69;;;-3.42;100.00
71476;BME280;59286;59.274;17.974;2023-11-19T06:09:34;101255.38;;;-3.43;100.00
71476;BME280;59286;59.274;17.974;2023-11-19T06:12:00;101262.72;;;-3.40;100.00
71476;BME280;59286;59.274;17.974;2023-11-19T06:14:27;101260.56;;;-3.36;100.00
71476;BME280;59286;59.274;17.974;2023-11-19T06:16:52;101257.03;;;-3.35;100.00
71476;BME280;59286;59.274;17.974;2023-11-19T06:19:18;101260.78;;;-3.31;100.00
71476;BME280;59286;59.274;17.974;2023-11-19T06:21:43;101266.66;;;-3.37;100.00
71476;BME280;59286;59.274;17.974;2023-11-19T06:24:09;101259.59;;;-3.35;100.00
71476;BME280;59286;59.274;17.974;2023-11-19T06:26:34;101259.66;;;-3.29;100.00
71476;BME280;59286;59.274;17.974;2023-11-19T06:28:59;101252.31;;;-3.32;100.00
71476;BME280;59286;59.274;17.974;2023-11-19T06:31:25;101256.88;;;-3.27;100.00
71476;BME280;59286;59.274;17.974;2023-11-19T06:33:50;101245.69;;;-3.20;100.00
71476;BME280;59286;59.274;17.974;2023-11-19T06:36:16;101242.53;;;-3.22;100.00
71476;BME280;59286;59.274;17.974;2023-11-19T06:38:42;101245.63;;;-3.26;100.00
71476;BME280;59286;59.274;17.974;2023-11-19T06:41:08;101245.28;;;-3.23;100.00
71476;BME280;59286;59.274;17.974;2023-11-19T06:43:37;101237.38;;;-3.28;100.00
71476;BME280;59286;59.274;17.974;2023-11-19T06:46:03;101230.03;;;-3.31;100.00
71476;BME280;59286;59.274;17.974;2023-11-19T06:48:31;101235.59;;;-3.28;100.00
71476;BME280;59286;59.274;17.974;2023-11-19T06:50:57;101226.66;;;-3.38;100.00
71476;BME280;59286;59.274;17.974;2023-11-19T06:53:22;101228.22;;;-3.37;100.00
71476;BME280;59286;59.274;17.974;2023-11-19T06:55:48;101230.03;;;-3.38;100.00
71476;BME280;59286;59.274;17.974;2023-11-19T06:58:13;101220.72;;;-3.45;100.00
71476;BME280;59286;59.274;17.974;2023-11-19T07:00:38;101213.97;;;-3.46;100.00
71476;BME280;59286;59.274;17.974;2023-11-19T07:03:03;101210.41;;;-3.52;100.00
71476;BME280;59286;59.274;17.974;2023-11-19T07:05:31;101215.09;;;-3.55;100.00
71476;BME280;59286;59.274;17.974;2023-11-19T07:07:56;101207.97;;;-3.60;100.00
71476;BME280;59286;59.274;17.974;2023-11-19T07:10:21;101209.97;;;-3.62;100.00
71476;BME280;59286;59.274;17.974;2023-11-19T07:12:47;101203.22;;;-3.63;100.00
71476;BME280;59286;59.274;17.974;2023-11-19T07:15:12;101199.84;;;-3.70;100.00
71476;BME280;59286;59.274;17.974;2023-11-19T07:17:39;101216.22;;;-3.64;100.00
71476;BME280;59286;59.274;17.974;2023-11-19T07:20:05;101215.00;;;-3.68;100.00
71476;BME280;59286;59.274;17.974;2023-11-19T07:22:31;101203.13;;;-3.76;100.00
71476;BME280;59286;59.274;17.974;2023-11-19T07:24:56;101217.56;;;-3.68;100.00
71476;BME280;59286;59.274;17.974;2023-11-19T07:27:22;101220.88;;;-3.74;100.00
71476;BME280;59286;59.274;17.974;2023-11-19T07:29:49;101225.38;;;-3.76;100.00
71476;BME280;59286;59.274;17.974;2023-11-19T07:32:14;101224.44;;;-3.75;100.00
71476;BME280;59286;59.274;17.974;2023-11-19T07:34:40;101225.56;;;-3.78;100.00
71476;BME280;59286;59.274;17.974;2023-11-19T07:37:05;101205.06;;;-3.84;100.00
71476;BME280;59286;59.274;17.974;2023-11-19T07:39:30;101212.41;;;-3.75;100.00
71476;BME280;59286;59.274;17.974;2023-11-19T07:41:56;101212.44;;;-3.68;100.00
71476;BME280;59286;59.274;17.974;2023-11-19T07:44:21;101204.16;;;-3.70;100.00
71476;BME280;59286;59.274;17.974;2023-11-19T07:46:47;101213.44;;;-3.69;100.00
71476;BME280;59286;59.274;17.974;2023-11-19T07:49:13;101203.81;;;-3.67;100.00
71476;BME280;59286;59.274;17.974;2023-11-19T07:51:39;101204.75;;;-3.75;100.00
71476;BME280;59286;59.274;17.974;2023-11-19T07:54:04;101201.97;;;-3.73;100.00
71476;BME280;59286;59.274;17.974;2023-11-19T07:56:29;101194.72;;;-3.70;100.00
71476;BME280;59286;59.274;17.974;2023-11-19T07:58:55;101196.88;;;-3.73;100.00
71476;BME280;59286;59.274;17.974;2023-11-19T08:01:20;101201.38;;;-3.75;100.00
71476;BME280;59286;59.274;17.974;2023-11-19T08:03:46;101201.25;;;-3.67;100.00
71476;BME280;59286;59.274;17.974;2023-11-19T08:06:11;101202.00;;;-3.67;100.00
71476;BME280;59286;59.274;17.974;2023-11-19T08:08:36;101195.88;;;-3.72;100.00
71476;BME280;59286;59.274;17.974;2023-11-19T08:11:03;101208.78;;;-3.59;100.00
71476;BME280;59286;59.274;17.974;2023-11-19T08:13:30;101200.72;;;-3.56;100.00
71476;BME280;59286;59.274;17.974;2023-11-19T08:15:56;101199.34;;;-3.52;100.00
71476;BME280;59286;59.274;17.974;2023-11-19T08:18:23;101204.94;;;-3.42;100.00
71476;BME280;59286;59.274;17.974;2023-11-19T08:20:49;101197.88;;;-3.40;100.00
71476;BME280;59286;59.274;17.974;2023-11-19T08:23:18;101203.81;;;-3.33;100.00
71476;BME280;59286;59.274;17.974;2023-11-19T08:25:43;101195.38;;;-3.27;100.00
71476;BME280;59286;59.274;17.974;2023-11-19T08:28:09;101192.06;;;-3.21;100.00
71476;BME280;59286;59.274;17.974;2023-11-19T08:30:34;101192.50;;;-3.11;100.00
71476;BME280;59286;59.274;17.974;2023-11-19T08:33:00;101184.44;;;-3.08;100.00
71476;BME280;59286;59.274;17.974;2023-11-19T08:35:28;101196.47;;;-3.02;100.00
71476;BME280;59286;59.274;17.974;2023-11-19T08:37:54;101183.66;;;-3.02;100.00
71476;BME280;59286;59.274;17.974;2023-11-19T08:40:19;101183.91;;;-2.97;100.00
71476;BME280;59286;59.274;17.974;2023-11-19T08:42:45;101172.50;;;-2.88;100.00
71476;BME280;59286;59.274;17.974;2023-11-19T08:45:10;101183.28;;;-2.99;100.00
71476;BME280;59286;59.274;17.974;2023-11-19T08:47:37;101180.53;;;-3.04;100.00
71476;BME280;59286;59.274;17.974;2023-11-19T08:50:02;101183.66;;;-3.02;100.00
71476;BME280;59286;59.274;17.974;2023-11-19T08:52:29;101170.44;;;-3.06;100.00
71476;BME280;59286;59.274;17.974;2023-11-19T08:54:54;101182.28;;;-3.05;100.00
71476;BME280;59286;59.274;17.974;2023-11-19T08:57:20;101178.78;;;-2.97;100.00
71476;BME280;59286;59.274;17.974;2023-11-19T08:59:45;101176.41;;;-2.92;100.00
71476;BME280;59286;59.274;17.974;2023-11-19T09:02:11;101174.06;;;-2.87;100.00
71476;BME280;59286;59.274;17.974;2023-11-19T09:04:36;101180.44;;;-2.76;100.00
71476;BME280;59286;59.274;17.974;2023-11-19T09:07:02;101160.47;;;-2.81;100.00
71476;BME280;59286;59.274;17.974;2023-11-19T09:09:28;101163.44;;;-2.77;100.00
71476;BME280;59286;59.274;17.974;2023-11-19T09:11:53;101165.84;;;-2.69;100.00
71476;BME280;59286;59.274;17.974;2023-11-19T09:14:19;101161.31;;;-2.67;100.00
71476;BME280;59286;59.274;17.974;2023-11-19T09:16:49;101155.97;;;-2.66;100.00
71476;BME280;59286;59.274;17.974;2023-11-19T09:19:15;101155.97;;;-2.66;100.00
71476;BME280;59286;59.274;17.974;2023-11-19T09:21:40;101141.59;;;-2.67;100.00
71476;BME280;59286;59.274;17.974;2023-11-19T09:24:05;101142.56;;;-2.55;100.00
71476;BME280;59286;59.274;17.974;2023-11-19T09:26:32;101140.44;;;-2.45;100.00
71476;BME280;59286;59.274;17.974;2023-11-19T09:28:58;101131.94;;;-2.45;100.00
71476;BME280;59286;59.274;17.974;2023-11-19T09:31:23;101143.63;;;-2.30;100.00
71476;BME280;59286;59.274;17.974;2023-11-19T09:33:49;101140.22;;;-2.24;100.00
71476;BME280;59286;59.274;17.974;2023-11-19T09:36:14;101138.28;;;-2.15;100.00
71476;BME280;59286;59.274;17.974;2023-11-19T09:38:42;101133.94;;;-2.15;100.00
71476;BME280;59286;59.274;17.974;2023-11-19T09:41:07;101128.41;;;-2.12;100.00
71476;BME280;59286;59.274;17.974;2023-11-19T09:43:35;101120.88;;;-2.07;100.00
71476;BME280;59286;59.274;17.974;2023-11-19T09:46:05;101118.72;;;-1.97;100.00
71476;BME280;59286;59.274;17.974;2023-11-19T09:48:37;101117.31;;;-1.99;100.00
71476;BME280;59286;59.274;17.974;2023-11-19T09:51:04;101111.22;;;-1.98;100.00
71476;BME280;59286;59.274;17.974;2023-11-19T09:53:30;101110.19;;;-1.84;100.00
71476;BME280;59286;59.274;17.974;2023-11-19T09:55:57;101112.16;;;-1.73;100.00
71476;BME280;59286;59.274;17.974;2023-11-19T09:58:25;101099.09;;;-1.71;100.00
71476;BME280;59286;59.274;17.974;2023-11-19T10:00:51;101094.38;;;-1.68;100.00
71476;BME280;59286;59.274;17.974;2023-11-19T10:03:17;101070.28;;;-1.80;100.00
71476;BME280;59286;59.274;17.974;2023-11-19T10:05:43;101086.06;;;-1.76;100.00
71476;BME280;59286;59.274;17.974;2023-11-19T10:08:08;101087.22;;;-1.59;100.00
71476;BME280;59286;59.274;17.974;2023-11-19T10:10:35;101064.91;;;-1.65;100.00
71476;BME280;59286;59.274;17.974;2023-11-19T10:13:01;101072.56;;;-1.52;100.00
71476;BME280;59286;59.274;17.974;2023-11-19T10:15:26;101059.34;;;-1.56;100.00
71476;BME280;59286;59.274;17.974;2023-11-19T10:17:55;101068.00;;;-1.50;100.00
71476;BME280;59286;59.274;17.974;2023-11-19T10:20:21;101058.38;;;-1.61;100.00
71476;BME280;59286;59.274;17.974;2023-11-19T10:22:47;101050.44;;;-1.60;100.00
71476;BME280;59286;59.274;17.974;2023-11-19T10:25:27;101055.38;;;-1.58;100.00
71476;BME280;59286;59.274;17.974;2023-11-19T10:27:53;101033.50;;;-1.74;100.00
71476;BME280;59286;59.274;17.974;2023-11-19T10:30:27;101041.78;;;-1.65;100.00
71476;BME280;59286;59.274;17.974;2023-11-19T10:33:07;101035.81;;;-1.59;100.00
71476;BME280;59286;59.274;17.974;2023-11-19T10:35:34;101044.13;;;-1.57;100.00
71476;BME280;59286;59.274;17.974;2023-11-19T10:38:00;101047.88;;;-1.53;100.00
71476;BME280;59286;59.274;17.974;2023-11-19T10:40:44;101019.06;;;-1.75;100.00
71476;BME280;59286;59.274;17.974;2023-11-19T10:43:10;101025.22;;;-1.82;100.00
71476;BME280;59286;59.274;17.974;2023-11-19T10:45:36;101025.22;;;-1.82;100.00
71476;BME280;59286;59.274;17.974;2023-11-19T10:48:03;101018.31;;;-1.82;100.00
71476;BME280;59286;59.274;17.974;2023-11-19T10:50:35;101040.38;;;-1.61;100.00
71476;BME280;59286;59.274;17.974;2023-11-19T10:53:02;101003.69;;;-1.81;100.00
71476;BME280;59286;59.274;17.974;2023-11-19T10:55:32;101012.16;;;-1.74;100.00
71476;BME280;59286;59.274;17.974;2023-11-19T10:58:08;101037.16;;;-1.44;99.95
71476;BME280;59286;59.274;17.974;2023-11-19T11:00:37;101041.06;;;-1.35;100.00
71476;BME280;59286;59.274;17.974;2023-11-19T11:03:10;101015.22;;;-1.53;99.68
71476;BME280;59286;59.274;17.974;2023-11-19T11:05:37;101001.03;;;-1.55;100.00
71476;BME280;59286;59.274;17.974;2023-11-19T11:08:06;100997.69;;;-1.62;99.41
71476;BME280;59286;59.274;17.974;2023-11-19T11:10:32;101019.59;;;-1.53;99.72
71476;BME280;59286;59.274;17.974;2023-11-19T11:13:02;101013.06;;;-1.56;100.00
71476;BME280;59286;59.274;17.974;2023-11-19T11:15:30;101000.28;;;-1.69;99.65
71476;BME280;59286;59.274;17.974;2023-11-19T11:17:59;101018.66;;;-1.65;100.00
71476;BME280;59286;59.274;17.974;2023-11-19T11:20:30;101007.63;;;-1.72;100.00
71476;BME280;59286;59.274;17.974;2023-11-19T11:23:24;101011.34;;;-1.68;100.00
71476;BME280;59286;59.274;17.974;2023-11-19T11:28:46;101013.72;;;-1.73;100.00
71476;BME280;59286;59.274;17.974;2023-11-19T11:31:23;101010.41;;;-1.80;100.00
71476;BME280;59286;59.274;17.974;2023-11-19T11:34:04;101001.13;;;-1.81;100.00
71476;BME280;59286;59.274;17.974;2023-11-19T11:39:22;100982.22;;;-2.00;100.00
71476;BME280;59286;59.274;17.974;2023-11-19T11:45:01;100991.66;;;-1.81;100.00
71476;BME280;59286;59.274;17.974;2023-11-19T11:50:08;100990.47;;;-1.91;100.00
71476;BME280;59286;59.274;17.974;2023-11-19T11:55:55;100989.50;;;-1.90;100.00
71476;BME280;59286;59.274;17.974;2023-11-19T11:58:25;100991.69;;;-1.94;100.00
71476;BME280;59286;59.274;17.974;2023-11-19T12:00:51;101001.34;;;-1.89;100.00
71476;BME280;59286;59.274;17.974;2023-11-19T12:03:20;100999.78;;;-1.90;100.00
71476;BME280;59286;59.274;17.974;2023-11-19T12:05:47;100991.69;;;-1.94;100.00
71476;BME280;59286;59.274;17.974;2023-11-19T12:08:14;100989.28;;;-1.89;100.00
71476;BME280;59286;59.274;17.974;2023-11-19T12:10:50;100988.09;;;-1.86;100.00
71476;BME280;59286;59.274;17.974;2023-11-19T12:13:17;100979.81;;;-1.88;100.00
71476;BME280;59286;59.274;17.974;2023-11-19T12:18:23;100988.50;;;-1.89;100.00
71476;BME280;59286;59.274;17.974;2023-11-19T12:20:48;100980.63;;;-1.94;100.00
71476;BME280;59286;59.274;17.974;2023-11-19T12:23:15;100974.31;;;-1.99;100.00
71476;BME280;59286;59.274;17.974;2023-11-19T12:25:40;100942.41;;;-2.29;100.00
71476;BME280;59286;59.274;17.974;2023-11-19T12:28:11;100958.34;;;-2.14;100.00
71476;BME280;59286;59.274;17.974;2023-11-19T12:30:38;100958.56;;;-2.22;100.00
71476;BME280;59286;59.274;17.974;2023-11-19T12:33:08;100934.13;;;-2.31;100.00
71476;BME280;59286;59.274;17.974;2023-11-19T12:35:41;100939.25;;;-2.31;100.00
71476;BME280;59286;59.274;17.974;2023-11-19T12:38:08;100955.41;;;-2.24;100.00
71476;BME280;59286;59.274;17.974;2023-11-19T12:40:33;100939.47;;;-2.39;100.00
71476;BME280;59286;59.274;17.974;2023-11-19T12:42:59;100953.47;;;-2.28;100.00
71476;BME280;59286;59.274;17.974;2023-11-19T12:45:34;100910.88;;;-2.55;100.00